createdAt,value
2023-05-12T00:00:32.448Z,1024.9214076079998
2023-05-12T00:01:32.419Z,1025.124590336
2023-05-12T00:02:32.425Z,1024.9214076079998
2023-05-12T00:03:32.538Z,1025.0229989719999
2023-05-12T00:04:32.434Z,1025.0229989719999
2023-05-12T00:05:32.325Z,1024.9214076079998
2023-05-12T00:06:32.350Z,1024.9214076079998
2023-05-12T00:07:32.362Z,1024.819816244
2023-05-12T00:08:33.407Z,1025.0229989719999
2023-05-12T00:09:45.568Z,1025.0229989719999
2023-05-12T00:10:49.592Z,1024.9214076079998
2023-05-12T00:11:53.615Z,1024.819816244
2023-05-12T00:12:57.635Z,1024.819816244
2023-05-12T00:14:01.624Z,1025.0229989719999
2023-05-12T00:15:05.585Z,1024.9214076079998
2023-05-12T00:16:09.643Z,1025.0229989719999
2023-05-12T00:17:13.615Z,1024.819816244
2023-05-12T00:18:17.579Z,1024.819816244
2023-05-12T00:19:21.601Z,1025.0229989719999
2023-05-12T00:20:25.589Z,1025.124590336
2023-05-12T00:21:29.579Z,1024.9214076079998
2023-05-12T00:22:32.335Z,1025.0229989719999
2023-05-12T00:23:32.319Z,1025.0229989719999
2023-05-12T00:24:32.375Z,1025.124590336
2023-05-12T00:25:32.397Z,1024.9214076079998
2023-05-12T00:26:32.348Z,1025.0229989719999
2023-05-12T00:27:32.334Z,1025.327773064
2023-05-12T00:28:32.340Z,1025.124590336
2023-05-12T00:29:32.418Z,1025.2261816999999
2023-05-12T00:30:32.330Z,1025.124590336
2023-05-12T00:31:32.365Z,1025.124590336
2023-05-12T00:32:32.464Z,1024.9214076079998
2023-05-12T00:33:32.362Z,1025.0229989719999
2023-05-12T00:34:32.397Z,1025.0229989719999
2023-05-12T00:35:32.358Z,1025.124590336
2023-05-12T00:36:32.305Z,1025.0229989719999
2023-05-12T00:37:32.332Z,1025.2261816999999
2023-05-12T00:38:32.338Z,1025.0229989719999
2023-05-12T00:39:32.388Z,1024.9214076079998
2023-05-12T00:40:32.347Z,1025.2261816999999
2023-05-12T00:41:32.550Z,1025.0229989719999
2023-05-12T00:42:32.332Z,1025.2261816999999
2023-05-12T00:43:32.356Z,1025.4293644279999
2023-05-12T00:44:32.332Z,1025.2261816999999
2023-05-12T00:45:32.421Z,1025.327773064
2023-05-12T00:46:32.368Z,1025.2261816999999
2023-05-12T00:47:32.416Z,1025.0229989719999
2023-05-12T00:48:32.314Z,1025.2261816999999
2023-05-12T00:49:32.369Z,1025.124590336
2023-05-12T00:50:32.768Z,1025.2261816999999
2023-05-12T00:51:32.355Z,1025.2261816999999
2023-05-12T00:52:32.324Z,1025.2261816999999
2023-05-12T00:53:45.015Z,1025.327773064
2023-05-12T00:54:32.308Z,1025.2261816999999
2023-05-12T00:55:32.361Z,1025.2261816999999
2023-05-12T00:56:32.313Z,1025.124590336
2023-05-12T00:57:32.366Z,1025.327773064
2023-05-12T00:58:32.332Z,1025.327773064
2023-05-12T00:59:32.368Z,1025.327773064
2023-05-12T01:00:32.470Z,1025.2261816999999
2023-05-12T01:01:32.500Z,1025.327773064
2023-05-12T01:02:32.411Z,1025.2261816999999
2023-05-12T01:03:32.465Z,1025.327773064
2023-05-12T01:04:32.311Z,1025.2261816999999
2023-05-12T01:05:32.322Z,1025.4293644279999
2023-05-12T01:06:32.364Z,1025.2261816999999
2023-05-12T01:07:32.328Z,1025.530955792
2023-05-12T01:08:32.355Z,1025.2261816999999
2023-05-12T01:09:32.377Z,1025.4293644279999
2023-05-12T01:10:32.350Z,1025.124590336
2023-05-12T01:11:32.332Z,1025.327773064
2023-05-12T01:12:32.333Z,1025.2261816999999
2023-05-12T01:13:32.361Z,1025.327773064
2023-05-12T01:14:32.305Z,1025.124590336
2023-05-12T01:15:32.382Z,1025.2261816999999
2023-05-12T01:16:32.384Z,1025.2261816999999
2023-05-12T01:17:32.446Z,1025.4293644279999
2023-05-12T01:18:32.375Z,1025.327773064
2023-05-12T01:19:32.313Z,1025.327773064
2023-05-12T01:20:32.648Z,1025.530955792
2023-05-12T01:21:32.437Z,1025.327773064
2023-05-12T01:22:32.435Z,1025.327773064
2023-05-12T01:23:32.339Z,1025.530955792
2023-05-12T01:24:32.353Z,1025.530955792
2023-05-12T01:25:32.365Z,1025.4293644279999
2023-05-12T01:26:32.458Z,1025.327773064
2023-05-12T01:27:32.470Z,1025.4293644279999
2023-05-12T01:28:32.471Z,1025.4293644279999
2023-05-12T01:29:32.346Z,1025.6325471559999
2023-05-12T01:30:32.290Z,1025.73413852
2023-05-12T01:31:32.391Z,1025.530955792
2023-05-12T01:32:32.372Z,1025.530955792
2023-05-12T01:33:32.356Z,1025.327773064
2023-05-12T01:34:32.391Z,1025.6325471559999
2023-05-12T01:35:32.306Z,1025.73413852
2023-05-12T01:36:32.365Z,1025.4293644279999
2023-05-12T01:37:32.338Z,1025.2261816999999
2023-05-12T01:38:32.366Z,1025.530955792
2023-05-12T01:39:32.318Z,1025.4293644279999
2023-05-12T01:40:33.371Z,1025.6325471559999
2023-05-12T01:41:32.471Z,1025.6325471559999
2023-05-12T01:42:32.506Z,1025.6325471559999
2023-05-12T01:43:32.427Z,1025.4293644279999
2023-05-12T01:44:32.468Z,1025.327773064
2023-05-12T01:45:32.441Z,1025.6325471559999
2023-05-12T01:46:32.537Z,1025.4293644279999
2023-05-12T01:47:32.516Z,1025.6325471559999
2023-05-12T01:48:32.534Z,1025.6325471559999
2023-05-12T01:49:32.536Z,1025.4293644279999
2023-05-12T01:50:33.347Z,1025.530955792
2023-05-12T01:51:32.469Z,1025.6325471559999
2023-05-12T01:52:32.516Z,1025.6325471559999
2023-05-12T01:53:32.494Z,1025.530955792
2023-05-12T01:54:32.490Z,1025.4293644279999
2023-05-12T01:55:32.477Z,1025.530955792
2023-05-12T01:56:32.442Z,1025.6325471559999
2023-05-12T01:57:32.456Z,1025.530955792
2023-05-12T01:58:32.468Z,1025.6325471559999
2023-05-12T01:59:32.325Z,1025.73413852
2023-05-12T02:00:32.394Z,1025.530955792
2023-05-12T02:01:32.416Z,1025.6325471559999
2023-05-12T02:02:32.465Z,1025.530955792
2023-05-12T02:03:32.383Z,1025.6325471559999
2023-05-12T02:04:32.365Z,1025.6325471559999
2023-05-12T02:05:32.350Z,1025.6325471559999
2023-05-12T02:06:32.405Z,1025.6325471559999
2023-05-12T02:07:32.316Z,1025.835729884
2023-05-12T02:08:32.353Z,1025.73413852
2023-05-12T02:09:32.346Z,1025.73413852
2023-05-12T02:10:32.662Z,1025.835729884
2023-05-12T02:11:32.376Z,1025.4293644279999
2023-05-12T02:12:32.412Z,1025.6325471559999
2023-05-12T02:13:32.322Z,1025.73413852
2023-05-12T02:14:32.325Z,1025.6325471559999
2023-05-12T02:15:32.366Z,1025.530955792
2023-05-12T02:16:32.373Z,1025.73413852
2023-05-12T02:17:32.434Z,1025.530955792
2023-05-12T02:18:32.391Z,1025.6325471559999
2023-05-12T02:19:32.338Z,1025.835729884
2023-05-12T02:20:32.758Z,1025.835729884
2023-05-12T02:21:32.303Z,1025.835729884
2023-05-12T02:22:32.306Z,1025.835729884
2023-05-12T02:23:32.314Z,1025.835729884
2023-05-12T02:24:32.350Z,1025.73413852
2023-05-12T02:25:32.323Z,1025.6325471559999
2023-05-12T02:26:32.382Z,1025.73413852
2023-05-12T02:27:32.315Z,1025.6325471559999
2023-05-12T02:28:32.345Z,1025.6325471559999
2023-05-12T02:29:32.351Z,1025.6325471559999
2023-05-12T02:30:32.343Z,1025.530955792
2023-05-12T02:31:32.426Z,1025.530955792
2023-05-12T02:32:32.405Z,1025.937321248
2023-05-12T02:33:32.450Z,1025.4293644279999
2023-05-12T02:34:32.350Z,1025.73413852
2023-05-12T02:35:32.347Z,1025.530955792
2023-05-12T02:36:32.336Z,1025.6325471559999
2023-05-12T02:37:32.340Z,1025.73413852
2023-05-12T02:38:32.407Z,1025.835729884
2023-05-12T02:39:32.325Z,1025.73413852
2023-05-12T02:40:32.431Z,1025.73413852
2023-05-12T02:41:32.295Z,1025.6325471559999
2023-05-12T02:42:32.396Z,1025.937321248
2023-05-12T02:43:32.354Z,1025.835729884
2023-05-12T02:44:32.349Z,1025.73413852
2023-05-12T02:45:32.343Z,1025.6325471559999
2023-05-12T02:46:32.396Z,1025.835729884
2023-05-12T02:47:32.364Z,1025.73413852
2023-05-12T02:48:32.318Z,1025.530955792
2023-05-12T02:49:32.349Z,1025.73413852
2023-05-12T02:50:32.715Z,1025.73413852
2023-05-12T02:51:32.371Z,1025.6325471559999
2023-05-12T02:52:32.366Z,1025.73413852
2023-05-12T02:53:32.297Z,1025.835729884
2023-05-12T02:54:32.357Z,1025.6325471559999
2023-05-12T02:55:32.301Z,1025.73413852
2023-05-12T02:56:33.960Z,1025.835729884
2023-05-12T02:57:32.304Z,1025.73413852
2023-05-12T02:58:32.373Z,1025.6325471559999
2023-05-12T02:59:32.327Z,1025.73413852
2023-05-12T03:00:32.759Z,1025.835729884
2023-05-12T03:01:32.330Z,1025.835729884
2023-05-12T03:02:32.386Z,1025.73413852
2023-05-12T03:03:32.413Z,1025.835729884
2023-05-12T03:04:32.332Z,1025.835729884
2023-05-12T03:05:32.343Z,1025.937321248
2023-05-12T03:06:32.358Z,1025.937321248
2023-05-12T03:07:32.321Z,1025.937321248
2023-05-12T03:08:32.361Z,1025.73413852
2023-05-12T03:09:32.301Z,1025.835729884
2023-05-12T03:10:32.910Z,1025.73413852
2023-05-12T03:11:32.470Z,1026.0389126119999
2023-05-12T03:12:32.368Z,1025.73413852
2023-05-12T03:13:32.416Z,1025.937321248
2023-05-12T03:14:32.493Z,1025.6325471559999
2023-05-12T03:15:32.454Z,1026.0389126119999
2023-05-12T03:16:32.395Z,1025.73413852
2023-05-12T03:17:32.504Z,1026.0389126119999
2023-05-12T03:18:32.398Z,1025.835729884
2023-05-12T03:19:32.381Z,1025.835729884
2023-05-12T03:20:32.397Z,1025.835729884
2023-05-12T03:21:32.297Z,1025.6325471559999
2023-05-12T03:22:32.481Z,1025.937321248
2023-05-12T03:23:32.338Z,1025.6325471559999
2023-05-12T03:24:32.340Z,1025.835729884
2023-05-12T03:25:32.325Z,1025.835729884
2023-05-12T03:26:32.463Z,1025.937321248
2023-05-12T03:27:32.457Z,1025.835729884
2023-05-12T03:28:32.394Z,1025.835729884
2023-05-12T03:29:32.373Z,1025.835729884
2023-05-12T03:30:32.661Z,1025.835729884
2023-05-12T03:31:32.535Z,1025.530955792
2023-05-12T03:32:32.431Z,1025.73413852
2023-05-12T03:33:32.400Z,1025.835729884
2023-05-12T03:34:32.526Z,1025.835729884
2023-05-12T03:35:32.479Z,1026.0389126119999
2023-05-12T03:36:32.322Z,1025.835729884
2023-05-12T03:37:32.477Z,1025.835729884
2023-05-12T03:38:32.368Z,1026.0389126119999
2023-05-12T03:39:32.489Z,1026.140503976
2023-05-12T03:40:32.882Z,1025.937321248
2023-05-12T03:41:32.413Z,1025.6325471559999
2023-05-12T03:42:32.472Z,1025.835729884
2023-05-12T03:43:32.478Z,1025.73413852
2023-05-12T03:44:32.438Z,1026.0389126119999
2023-05-12T03:45:32.361Z,1025.835729884
2023-05-12T03:46:32.618Z,1026.0389126119999
2023-05-12T03:47:32.461Z,1025.937321248
2023-05-12T03:48:32.446Z,1025.835729884
2023-05-12T03:49:32.436Z,1025.6325471559999
2023-05-12T03:50:32.497Z,1025.73413852
2023-05-12T03:51:32.325Z,1025.835729884
2023-05-12T03:52:32.322Z,1025.835729884
2023-05-12T03:53:32.348Z,1025.937321248
2023-05-12T03:54:32.355Z,1025.835729884
2023-05-12T03:55:32.313Z,1025.937321248
2023-05-12T03:56:32.323Z,1026.0389126119999
2023-05-12T03:57:32.339Z,1025.835729884
2023-05-12T03:58:32.350Z,1026.0389126119999
2023-05-12T03:59:32.338Z,1025.835729884
2023-05-12T04:00:32.327Z,1025.937321248
2023-05-12T04:01:32.438Z,1026.0389126119999
2023-05-12T04:02:32.699Z,1025.937321248
2023-05-12T04:03:32.385Z,1025.835729884
2023-05-12T04:04:32.330Z,1025.835729884
2023-05-12T04:05:32.340Z,1025.835729884
2023-05-12T04:06:32.490Z,1026.140503976
2023-05-12T04:07:32.396Z,1025.835729884
2023-05-12T04:08:32.356Z,1025.937321248
2023-05-12T04:09:32.509Z,1025.937321248
2023-05-12T04:10:32.961Z,1026.140503976
2023-05-12T04:11:32.341Z,1026.140503976
2023-05-12T04:12:32.350Z,1026.0389126119999
2023-05-12T04:13:32.290Z,1026.0389126119999
2023-05-12T04:14:42.379Z,1026.140503976
2023-05-12T04:15:32.405Z,1026.208231552
2023-05-12T04:16:32.448Z,1026.0389126119999
2023-05-12T04:17:32.325Z,1026.0389126119999
2023-05-12T04:18:32.410Z,1026.0389126119999
2023-05-12T04:19:32.333Z,1025.937321248
2023-05-12T04:20:32.737Z,1026.0389126119999
2023-05-12T04:21:32.388Z,1026.140503976
2023-05-12T04:22:32.335Z,1026.0389126119999
2023-05-12T04:23:32.344Z,1025.937321248
2023-05-12T04:24:32.291Z,1026.0389126119999
2023-05-12T04:25:32.317Z,1026.0389126119999
2023-05-12T04:26:32.328Z,1026.140503976
2023-05-12T04:27:32.338Z,1026.0389126119999
2023-05-12T04:28:32.335Z,1025.937321248
2023-05-12T04:29:32.317Z,1025.835729884
2023-05-12T04:30:32.730Z,1026.140503976
2023-05-12T04:31:32.362Z,1025.835729884
2023-05-12T04:32:32.326Z,1026.140503976
2023-05-12T04:33:32.319Z,1026.0389126119999
2023-05-12T04:34:32.318Z,1025.937321248
2023-05-12T04:35:32.358Z,1025.937321248
2023-05-12T04:36:32.357Z,1025.937321248
2023-05-12T04:37:32.294Z,1025.937321248
2023-05-12T04:38:32.314Z,1025.937321248
2023-05-12T04:39:32.305Z,1025.835729884
2023-05-12T04:40:34.770Z,1025.835729884
2023-05-12T04:41:32.319Z,1025.835729884
2023-05-12T04:42:32.353Z,1025.937321248
2023-05-12T04:44:32.326Z,1026.0389126119999
2023-05-12T04:45:32.370Z,1026.0389126119999
2023-05-12T04:46:32.397Z,1025.937321248
2023-05-12T04:47:32.335Z,1025.937321248
2023-05-12T04:48:32.310Z,1025.835729884
2023-05-12T04:49:32.324Z,1025.835729884
2023-05-12T04:50:32.682Z,1025.937321248
2023-05-12T04:51:32.335Z,1025.835729884
2023-05-12T04:52:32.333Z,1025.835729884
2023-05-12T04:53:32.341Z,1025.835729884
2023-05-12T04:54:32.304Z,1025.937321248
2023-05-12T04:55:32.392Z,1026.140503976
2023-05-12T04:56:32.354Z,1025.835729884
2023-05-12T04:57:32.387Z,1025.937321248
2023-05-12T04:58:32.292Z,1025.6325471559999
2023-05-12T04:59:32.354Z,1025.937321248
2023-05-12T05:00:32.786Z,1025.937321248
2023-05-12T05:01:32.551Z,1025.937321248
2023-05-12T05:02:32.362Z,1025.835729884
2023-05-12T05:03:32.422Z,1025.835729884
2023-05-12T05:04:32.311Z,1026.140503976
2023-05-12T05:05:32.343Z,1026.0389126119999
2023-05-12T05:06:32.303Z,1025.937321248
2023-05-12T05:07:32.367Z,1026.0389126119999
2023-05-12T05:08:32.294Z,1026.0389126119999
2023-05-12T05:09:33.396Z,1026.0389126119999
2023-05-12T05:10:32.694Z,1026.0389126119999
2023-05-12T05:11:32.408Z,1026.0389126119999
2023-05-12T05:12:32.357Z,1026.140503976
2023-05-12T05:13:32.342Z,1025.937321248
2023-05-12T05:14:32.321Z,1025.835729884
2023-05-12T05:15:32.355Z,1025.937321248
2023-05-12T05:16:32.396Z,1025.835729884
2023-05-12T05:17:32.422Z,1025.937321248
2023-05-12T05:18:32.381Z,1025.937321248
2023-05-12T05:19:44.792Z,1025.937321248
2023-05-12T05:20:32.646Z,1025.937321248
2023-05-12T05:21:32.335Z,1026.0389126119999
2023-05-12T05:22:32.312Z,1025.937321248
2023-05-12T05:23:32.384Z,1025.937321248
2023-05-12T05:24:32.337Z,1025.835729884
2023-05-12T05:25:32.302Z,1026.0389126119999
2023-05-12T05:26:32.313Z,1026.0389126119999
2023-05-12T05:27:32.330Z,1025.835729884
2023-05-12T05:28:32.308Z,1026.0389126119999
2023-05-12T05:29:32.370Z,1026.140503976
2023-05-12T05:30:32.284Z,1025.835729884
2023-05-12T05:31:32.470Z,1025.835729884
2023-05-12T05:32:32.358Z,1025.937321248
2023-05-12T05:33:32.321Z,1026.0389126119999
2023-05-12T05:34:32.363Z,1026.0389126119999
2023-05-12T05:35:32.356Z,1025.937321248
2023-05-12T05:36:32.399Z,1026.0389126119999
2023-05-12T05:37:32.307Z,1025.835729884
2023-05-12T05:38:32.376Z,1025.937321248
2023-05-12T05:39:32.340Z,1025.937321248
2023-05-12T05:40:44.846Z,1025.937321248
2023-05-12T05:41:32.368Z,1026.140503976
2023-05-12T05:42:32.304Z,1026.208231552
2023-05-12T05:43:32.348Z,1025.937321248
2023-05-12T05:44:32.354Z,1026.140503976
2023-05-12T05:45:32.383Z,1026.0389126119999
2023-05-12T05:46:32.356Z,1026.309822916
2023-05-12T05:47:32.491Z,1026.0389126119999
2023-05-12T05:48:32.318Z,1026.0389126119999
2023-05-12T05:49:32.316Z,1026.140503976
2023-05-12T05:50:32.323Z,1026.208231552
2023-05-12T05:51:32.304Z,1026.0389126119999
2023-05-12T05:52:32.342Z,1025.937321248
2023-05-12T05:53:32.359Z,1025.937321248
2023-05-12T05:54:32.292Z,1025.937321248
2023-05-12T05:55:32.312Z,1025.937321248
2023-05-12T05:56:32.343Z,1026.0389126119999
2023-05-12T05:57:32.303Z,1025.937321248
2023-05-12T05:58:32.297Z,1025.937321248
2023-05-12T05:59:32.315Z,1025.937321248
2023-05-12T06:00:32.778Z,1025.835729884
2023-05-12T06:01:32.530Z,1025.73413852
2023-05-12T06:02:32.497Z,1025.937321248
2023-05-12T06:03:32.474Z,1025.937321248
2023-05-12T06:04:32.346Z,1025.835729884
2023-05-12T06:05:32.322Z,1025.835729884
2023-05-12T06:06:32.350Z,1025.937321248
2023-05-12T06:07:32.277Z,1025.835729884
2023-05-12T06:08:32.342Z,1026.140503976
2023-05-12T06:09:33.343Z,1025.937321248
2023-05-12T06:10:33.233Z,1025.937321248
2023-05-12T06:11:37.180Z,1025.937321248
2023-05-12T06:12:41.232Z,1025.937321248
2023-05-12T06:13:45.160Z,1025.937321248
2023-05-12T06:14:49.224Z,1025.835729884
2023-05-12T06:15:53.103Z,1025.937321248
2023-05-12T06:16:57.302Z,1025.835729884
2023-05-12T06:18:01.188Z,1025.835729884
2023-05-12T06:19:05.250Z,1026.0389126119999
2023-05-12T06:20:09.104Z,1025.835729884
2023-05-12T06:21:13.222Z,1025.937321248
2023-05-12T06:22:17.145Z,1025.835729884
2023-05-12T06:23:21.116Z,1025.835729884
2023-05-12T06:24:25.105Z,1026.208231552
2023-05-12T06:25:29.106Z,1025.835729884
2023-05-12T06:26:32.293Z,1025.937321248
2023-05-12T06:27:32.293Z,1026.140503976
2023-05-12T06:28:32.304Z,1025.835729884
2023-05-12T06:29:32.325Z,1026.0389126119999
2023-05-12T06:30:32.921Z,1025.835729884
2023-05-12T06:31:32.423Z,1026.140503976
2023-05-12T06:32:32.389Z,1025.835729884
2023-05-12T06:33:32.275Z,1025.937321248
2023-05-12T06:34:32.288Z,1025.937321248
2023-05-12T06:35:32.424Z,1025.937321248
2023-05-12T06:36:32.319Z,1026.0389126119999
2023-05-12T06:37:32.288Z,1026.0389126119999
2023-05-12T06:38:32.283Z,1025.937321248
2023-05-12T06:39:32.323Z,1026.140503976
2023-05-12T06:40:32.368Z,1025.937321248
2023-05-12T06:41:32.281Z,1025.73413852
2023-05-12T06:42:32.353Z,1025.937321248
2023-05-12T06:43:32.362Z,1026.0389126119999
2023-05-12T06:44:32.366Z,1026.208231552
2023-05-12T06:45:32.337Z,1025.937321248
2023-05-12T06:46:32.367Z,1026.140503976
2023-05-12T06:47:32.412Z,1025.937321248
2023-05-12T06:48:32.340Z,1026.0389126119999
2023-05-12T06:49:32.324Z,1026.140503976
2023-05-12T06:50:32.760Z,1026.0389126119999
2023-05-12T06:51:32.375Z,1026.309822916
2023-05-12T06:52:32.305Z,1026.208231552
2023-05-12T06:53:32.332Z,1026.208231552
2023-05-12T06:54:32.287Z,1026.208231552
2023-05-12T06:55:32.338Z,1026.140503976
2023-05-12T06:56:32.374Z,1026.309822916
2023-05-12T06:57:32.272Z,1026.140503976
2023-05-12T06:58:32.298Z,1026.41141428
2023-05-12T06:59:32.372Z,1026.41141428
2023-05-12T07:00:33.542Z,1026.309822916
2023-05-12T07:01:32.339Z,1026.208231552
2023-05-12T07:02:32.311Z,1026.140503976
2023-05-12T07:03:32.402Z,1026.140503976
2023-05-12T07:04:32.346Z,1026.208231552
2023-05-12T07:05:32.341Z,1026.140503976
2023-05-12T07:06:32.299Z,1026.140503976
2023-05-12T07:07:32.400Z,1026.140503976
2023-05-12T07:08:32.288Z,1026.0389126119999
2023-05-12T07:09:32.335Z,1026.208231552
2023-05-12T07:10:32.268Z,1026.208231552
2023-05-12T07:11:32.324Z,1026.0389126119999
2023-05-12T07:12:32.317Z,1025.835729884
2023-05-12T07:13:32.271Z,1026.208231552
2023-05-12T07:14:32.316Z,1026.0389126119999
2023-05-12T07:15:32.857Z,1026.208231552
2023-05-12T07:16:32.346Z,1025.937321248
2023-05-12T07:17:32.416Z,1025.937321248
2023-05-12T07:18:32.368Z,1026.208231552
2023-05-12T07:19:32.325Z,1026.140503976
2023-05-12T07:20:32.279Z,1025.937321248
2023-05-12T07:21:32.322Z,1026.0389126119999
2023-05-12T07:22:32.368Z,1025.937321248
2023-05-12T07:23:32.320Z,1026.0389126119999
2023-05-12T07:24:32.341Z,1026.0389126119999
2023-05-12T07:25:32.418Z,1026.0389126119999
2023-05-12T07:26:32.346Z,1026.208231552
2023-05-12T07:27:32.322Z,1026.309822916
2023-05-12T07:28:32.363Z,1026.208231552
2023-05-12T07:29:32.290Z,1026.0389126119999
2023-05-12T07:30:32.382Z,1026.208231552
2023-05-12T07:31:32.405Z,1025.937321248
2023-05-12T07:32:32.298Z,1026.208231552
2023-05-12T07:33:32.305Z,1025.937321248
2023-05-12T07:34:32.281Z,1026.140503976
2023-05-12T07:35:32.405Z,1026.140503976
2023-05-12T07:36:32.354Z,1026.140503976
2023-05-12T07:37:32.296Z,1025.937321248
2023-05-12T07:38:32.296Z,1026.0389126119999
2023-05-12T07:39:32.340Z,1026.208231552
2023-05-12T07:40:32.936Z,1026.140503976
2023-05-12T07:41:34.292Z,1026.0389126119999
2023-05-12T07:42:32.368Z,1025.937321248
2023-05-12T07:43:32.301Z,1025.835729884
2023-05-12T07:44:32.333Z,1025.835729884
2023-05-12T07:45:32.316Z,1026.140503976
2023-05-12T07:46:32.338Z,1026.140503976
2023-05-12T07:47:32.396Z,1026.140503976
2023-05-12T07:48:32.329Z,1026.0389126119999
2023-05-12T07:49:32.326Z,1026.140503976
2023-05-12T07:50:32.857Z,1026.140503976
2023-05-12T07:51:32.348Z,1025.937321248
2023-05-12T07:52:32.283Z,1026.0389126119999
2023-05-12T07:53:32.411Z,1026.140503976
2023-05-12T07:54:32.283Z,1026.309822916
2023-05-12T07:55:32.349Z,1026.140503976
2023-05-12T07:56:32.310Z,1026.0389126119999
2023-05-12T07:57:32.400Z,1026.0389126119999
2023-05-12T07:58:32.284Z,1026.0389126119999
2023-05-12T07:59:32.369Z,1025.937321248
2023-05-12T08:00:32.336Z,1026.208231552
2023-05-12T08:01:32.418Z,1026.0389126119999
2023-05-12T08:02:32.369Z,1026.309822916
2023-05-12T08:03:32.409Z,1026.309822916
2023-05-12T08:04:32.371Z,1026.0389126119999
2023-05-12T08:05:32.319Z,1026.309822916
2023-05-12T08:06:32.299Z,1026.208231552
2023-05-12T08:07:32.318Z,1025.835729884
2023-05-12T08:08:32.296Z,1026.208231552
2023-05-12T08:09:32.281Z,1026.208231552
2023-05-12T08:10:32.295Z,1025.937321248
2023-05-12T08:11:32.311Z,1026.0389126119999
2023-05-12T08:12:32.300Z,1026.208231552
2023-05-12T08:13:32.327Z,1026.309822916
2023-05-12T08:14:32.344Z,1026.309822916
2023-05-12T08:15:32.300Z,1026.208231552
2023-05-12T08:16:32.384Z,1026.208231552
2023-05-12T08:17:32.327Z,1026.208231552
2023-05-12T08:18:32.380Z,1026.140503976
2023-05-12T08:19:32.345Z,1026.208231552
2023-05-12T08:20:32.874Z,1026.41141428
2023-05-12T08:21:32.331Z,1026.140503976
2023-05-12T08:22:32.285Z,1026.140503976
2023-05-12T08:23:32.347Z,1026.0389126119999
2023-05-12T08:24:32.282Z,1026.208231552
2023-05-12T08:25:32.343Z,1026.140503976
2023-05-12T08:26:32.276Z,1026.140503976
2023-05-12T08:27:32.312Z,1026.208231552
2023-05-12T08:28:32.256Z,1025.937321248
2023-05-12T08:29:32.381Z,1026.0389126119999
2023-05-12T08:30:32.330Z,1026.140503976
2023-05-12T08:31:32.398Z,1026.208231552
2023-05-12T08:32:32.443Z,1026.0389126119999
2023-05-12T08:33:32.296Z,1025.835729884
2023-05-12T08:34:32.292Z,1026.140503976
2023-05-12T08:35:32.338Z,1026.309822916
2023-05-12T08:36:32.344Z,1026.140503976
2023-05-12T08:37:34.272Z,1026.140503976
2023-05-12T08:38:32.347Z,1026.208231552
2023-05-12T08:39:32.392Z,1025.937321248
2023-05-12T08:40:32.866Z,1026.140503976
2023-05-12T08:41:32.293Z,1026.140503976
2023-05-12T08:42:32.291Z,1026.208231552
2023-05-12T08:43:32.278Z,1026.309822916
2023-05-12T08:44:32.391Z,1026.0389126119999
2023-05-12T08:45:32.271Z,1025.937321248
2023-05-12T08:46:32.359Z,1026.140503976
2023-05-12T08:47:32.375Z,1026.0389126119999
2023-05-12T08:48:32.294Z,1026.0389126119999
2023-05-12T08:49:32.290Z,1026.208231552
2023-05-12T08:50:32.308Z,1026.140503976
2023-05-12T08:51:32.276Z,1026.140503976
2023-05-12T08:52:32.318Z,1026.208231552
2023-05-12T08:53:32.284Z,1026.309822916
2023-05-12T08:54:33.393Z,1025.937321248
2023-05-12T08:55:34.332Z,1026.140503976
2023-05-12T08:57:32.269Z,1026.309822916
2023-05-12T08:58:40.964Z,1026.140503976
2023-05-12T08:59:32.318Z,1025.937321248
2023-05-12T09:00:32.334Z,1026.0389126119999
2023-05-12T09:01:33.086Z,1026.0389126119999
2023-05-12T09:02:44.639Z,1025.835729884
2023-05-12T09:03:32.301Z,1026.140503976
2023-05-12T09:04:32.375Z,1025.73413852
2023-05-12T09:05:32.291Z,1026.0389126119999
2023-05-12T09:06:32.373Z,1026.0389126119999
2023-05-12T09:07:32.321Z,1026.140503976
2023-05-12T09:08:32.308Z,1026.140503976
2023-05-12T09:09:32.292Z,1026.0389126119999
2023-05-12T09:10:35.550Z,1026.140503976
2023-05-12T09:11:32.314Z,1026.0389126119999
2023-05-12T09:12:32.280Z,1026.140503976
2023-05-12T09:13:32.285Z,1026.0389126119999
2023-05-12T09:14:32.271Z,1026.140503976
2023-05-12T09:15:32.281Z,1026.0389126119999
2023-05-12T09:16:32.340Z,1026.140503976
2023-05-12T09:17:32.385Z,1025.937321248
2023-05-12T09:18:32.353Z,1026.0389126119999
2023-05-12T09:19:32.319Z,1026.0389126119999
2023-05-12T09:20:33.148Z,1026.140503976
2023-05-12T09:21:32.293Z,1025.937321248
2023-05-12T09:22:32.264Z,1026.0389126119999
2023-05-12T09:23:32.262Z,1025.937321248
2023-05-12T09:24:32.287Z,1025.937321248
2023-05-12T09:25:32.356Z,1025.835729884
2023-05-12T09:26:32.367Z,1025.835729884
2023-05-12T09:27:32.273Z,1025.835729884
2023-05-12T09:28:32.348Z,1025.937321248
2023-05-12T09:29:34.459Z,1025.937321248
2023-05-12T09:30:32.312Z,1026.0389126119999
2023-05-12T09:31:32.291Z,1025.937321248
2023-05-12T09:32:32.354Z,1026.0389126119999
2023-05-12T09:33:32.265Z,1025.73413852
2023-05-12T09:34:32.333Z,1025.73413852
2023-05-12T09:35:33.288Z,1025.835729884
2023-05-12T09:36:40.892Z,1026.0389126119999
2023-05-12T09:37:44.845Z,1025.835729884
2023-05-12T09:38:48.792Z,1025.73413852
2023-05-12T09:39:52.805Z,1025.835729884
2023-05-12T09:40:56.901Z,1025.937321248
2023-05-12T09:42:00.778Z,1025.835729884
2023-05-12T09:43:04.845Z,1025.73413852
2023-05-12T09:44:08.889Z,1025.835729884
2023-05-12T09:45:12.812Z,1025.73413852
2023-05-12T09:46:16.834Z,1025.73413852